aviador You're here:

KBHK Decoded Metar

BAKER in MT, USA
Report Time2018-07-19 18:51:00
UTC Time2018-07-19 19:10:51
Flight Rules vfr VFR
WindVRB at 06 Gusting to 15 kt
Visibility9999 m
Phenomena:N/A
Clouds:N/A
Expected CloudBase > 6,000 ft AGL from Temp-Dew spread
CeilingNone
Temp29°C (ISA +20)
Dew Point14°C (40% RH)
Heat Index28.6°C
AAT28.1°C
QNH1015 hPa
Density Alt5,381 ft
Elevation2,959 ft
Report Wrong Elevation
Raw Report
KBHK 191851Z AUTO VRB06G15KT 10SM CLR 29/14 A2997 RMK AO2 SLP123
T02940139=

Extra information for KBHK:More info

Metar Taf Metar & Taf Last 4 Metars F.Rules Stats Wind Profile Meteogram Temp Stats Airport Information Weather charts Add Link Nearby VenuesMetar ALERT Operation Metar Decoded Social comments

AIRNAV info for KBHK